sensor_id;sensor_type;location;lat;lon;timestamp;pressure;altitude;pressure_sealevel;temperature;humidity
32081;BME280;18593;51.426;7.030;2023-04-02T00:02:31;99817.28;;;8.85;78.02
32081;BME280;18593;51.426;7.030;2023-04-02T00:05:36;99840.41;;;8.84;78.19
32081;BME280;18593;51.426;7.030;2023-04-02T00:08:19;99825.28;;;8.78;77.13
32081;BME280;18593;51.426;7.030;2023-04-02T00:10:48;99826.72;;;8.81;77.84
32081;BME280;18593;51.426;7.030;2023-04-02T00:13:21;99843.72;;;8.73;77.26
32081;BME280;18593;51.426;7.030;2023-04-02T00:15:49;99842.56;;;8.69;77.72
32081;BME280;18593;51.426;7.030;2023-04-02T00:18:20;99846.44;;;8.66;77.89
32081;BME280;18593;51.426;7.030;2023-04-02T00:20:49;99857.88;;;8.67;77.86
32081;BME280;18593;51.426;7.030;2023-04-02T00:23:18;99862.16;;;8.68;77.97
32081;BME280;18593;51.426;7.030;2023-04-02T00:25:45;99862.97;;;8.68;78.15
32081;BME280;18593;51.426;7.030;2023-04-02T00:28:13;99880.59;;;8.69;77.58
32081;BME280;18593;51.426;7.030;2023-04-02T00:30:46;99885.91;;;8.63;77.12
32081;BME280;18593;51.426;7.030;2023-04-02T00:33:14;99889.66;;;8.55;77.29
32081;BME280;18593;51.426;7.030;2023-04-02T00:35:44;99888.44;;;8.51;77.49
32081;BME280;18593;51.426;7.030;2023-04-02T00:38:17;99906.41;;;8.49;77.83
32081;BME280;18593;51.426;7.030;2023-04-02T00:40:45;99902.94;;;8.55;78.11
32081;BME280;18593;51.426;7.030;2023-04-02T00:43:12;99911.28;;;8.59;77.76
32081;BME280;18593;51.426;7.030;2023-04-02T00:45:42;99921.09;;;8.58;77.30
32081;BME280;18593;51.426;7.030;2023-04-02T00:48:25;99914.16;;;8.57;77.21
32081;BME280;18593;51.426;7.030;2023-04-02T00:50:56;99928.91;;;8.53;76.88
32081;BME280;18593;51.426;7.030;2023-04-02T00:53:25;99942.22;;;8.46;76.83
32081;BME280;18593;51.426;7.030;2023-04-02T00:55:54;99936.91;;;8.46;76.89
32081;BME280;18593;51.426;7.030;2023-04-02T00:58:25;99943.25;;;8.45;76.70
32081;BME280;18593;51.426;7.030;2023-04-02T01:00:53;99946.09;;;8.44;76.37
32081;BME280;18593;51.426;7.030;2023-04-02T01:03:31;99953.28;;;8.37;76.04
32081;BME280;18593;51.426;7.030;2023-04-02T01:06:06;99960.44;;;8.30;75.53
32081;BME280;18593;51.426;7.030;2023-04-02T01:08:47;99959.59;;;8.29;76.05
32081;BME280;18593;51.426;7.030;2023-04-02T01:11:27;99956.56;;;8.25;75.63
32081;BME280;18593;51.426;7.030;2023-04-02T01:14:00;99965.34;;;8.26;75.84
32081;BME280;18593;51.426;7.030;2023-04-02T01:16:34;99970.44;;;8.27;75.50
32081;BME280;18593;51.426;7.030;2023-04-02T01:19:22;99970.22;;;8.29;75.74
32081;BME280;18593;51.426;7.030;2023-04-02T01:22:00;99964.72;;;8.31;75.97
32081;BME280;18593;51.426;7.030;2023-04-02T01:24:30;99981.88;;;8.35;75.76
32081;BME280;18593;51.426;7.030;2023-04-02T01:26:59;99985.19;;;8.37;75.90
32081;BME280;18593;51.426;7.030;2023-04-02T01:29:30;99986.19;;;8.36;75.01
32081;BME280;18593;51.426;7.030;2023-04-02T01:32:01;99994.75;;;8.31;75.02
32081;BME280;18593;51.426;7.030;2023-04-02T01:34:30;100008.03;;;8.24;74.75
32081;BME280;18593;51.426;7.030;2023-04-02T01:37:12;100000.91;;;8.18;74.91
32081;BME280;18593;51.426;7.030;2023-04-02T01:39:54;100016.03;;;8.18;74.96
32081;BME280;18593;51.426;7.030;2023-04-02T01:42:28;100011.97;;;8.15;74.68
32081;BME280;18593;51.426;7.030;2023-04-02T01:45:00;100015.44;;;8.09;74.10
32081;BME280;18593;51.426;7.030;2023-04-02T01:47:28;100017.88;;;8.04;74.43
32081;BME280;18593;51.426;7.030;2023-04-02T01:49:57;100027.28;;;8.07;74.42
32081;BME280;18593;51.426;7.030;2023-04-02T01:52:34;100023.81;;;8.06;75.13
32081;BME280;18593;51.426;7.030;2023-04-02T01:55:03;100036.06;;;8.07;74.61
32081;BME280;18593;51.426;7.030;2023-04-02T01:57:30;100036.28;;;8.12;74.81
32081;BME280;18593;51.426;7.030;2023-04-02T01:59:59;100043.22;;;8.13;74.30
32081;BME280;18593;51.426;7.030;2023-04-02T02:02:39;100045.25;;;8.18;74.52
32081;BME280;18593;51.426;7.030;2023-04-02T02:05:11;100050.16;;;8.21;74.15
32081;BME280;18593;51.426;7.030;2023-04-02T02:07:40;100050.78;;;8.16;73.85
32081;BME280;18593;51.426;7.030;2023-04-02T02:10:09;100053.84;;;8.13;74.17
32081;BME280;18593;51.426;7.030;2023-04-02T02:12:39;100054.66;;;8.14;74.15
32081;BME280;18593;51.426;7.030;2023-04-02T02:15:13;100072.66;;;8.12;73.93
32081;BME280;18593;51.426;7.030;2023-04-02T02:17:41;100082.44;;;8.05;73.94
32081;BME280;18593;51.426;7.030;2023-04-02T02:20:09;100078.75;;;7.99;73.99
32081;BME280;18593;51.426;7.030;2023-04-02T02:22:38;100080.19;;;7.95;74.00
32081;BME280;18593;51.426;7.030;2023-04-02T02:25:10;100089.38;;;7.86;74.23
32081;BME280;18593;51.426;7.030;2023-04-02T02:27:44;100093.47;;;7.82;74.52
32081;BME280;18593;51.426;7.030;2023-04-02T02:30:17;100094.47;;;7.81;74.26
32081;BME280;18593;51.426;7.030;2023-04-02T02:32:51;100119.00;;;7.83;74.59
32081;BME280;18593;51.426;7.030;2023-04-02T02:35:20;100108.97;;;7.78;74.11
32081;BME280;18593;51.426;7.030;2023-04-02T02:37:54;100106.53;;;7.77;74.00
32081;BME280;18593;51.426;7.030;2023-04-02T02:40:25;100111.41;;;7.73;74.31
32081;BME280;18593;51.426;7.030;2023-04-02T02:42:56;100119.97;;;7.75;74.01
32081;BME280;18593;51.426;7.030;2023-04-02T02:45:29;100125.72;;;7.72;74.00
32081;BME280;18593;51.426;7.030;2023-04-02T02:47:59;100141.63;;;7.72;73.93
32081;BME280;18593;51.426;7.030;2023-04-02T02:50:28;100128.53;;;7.70;73.63
32081;BME280;18593;51.426;7.030;2023-04-02T02:52:57;100144.47;;;7.70;74.08
32081;BME280;18593;51.426;7.030;2023-04-02T02:55:29;100157.75;;;7.70;73.92
32081;BME280;18593;51.426;7.030;2023-04-02T02:58:09;100146.09;;;7.65;73.48
32081;BME280;18593;51.426;7.030;2023-04-02T03:00:46;100159.19;;;7.66;73.70
32081;BME280;18593;51.426;7.030;2023-04-02T03:03:16;100162.66;;;7.67;73.57
32081;BME280;18593;51.426;7.030;2023-04-02T03:05:50;100175.88;;;7.60;73.33
32081;BME280;18593;51.426;7.030;2023-04-02T03:08:23;100175.84;;;7.47;73.10
32081;BME280;18593;51.426;7.030;2023-04-02T03:10:53;100173.81;;;7.49;74.10
32081;BME280;18593;51.426;7.030;2023-04-02T03:13:26;100179.94;;;7.49;73.37
32081;BME280;18593;51.426;7.030;2023-04-02T03:16:02;100177.44;;;7.41;73.31
32081;BME280;18593;51.426;7.030;2023-04-02T03:18:36;100190.09;;;7.39;73.43
32081;BME280;18593;51.426;7.030;2023-04-02T03:21:13;100192.53;;;7.41;73.79
32081;BME280;18593;51.426;7.030;2023-04-02T03:23:44;100195.03;;;7.42;73.66
32081;BME280;18593;51.426;7.030;2023-04-02T03:26:16;100211.31;;;7.39;73.32
32081;BME280;18593;51.426;7.030;2023-04-02T03:28:46;100209.47;;;7.40;73.72
32081;BME280;18593;51.426;7.030;2023-04-02T03:31:21;100221.13;;;7.39;73.84
32081;BME280;18593;51.426;7.030;2023-04-02T03:33:51;100220.72;;;7.42;73.91
32081;BME280;18593;51.426;7.030;2023-04-02T03:36:23;100231.94;;;7.44;73.93
32081;BME280;18593;51.426;7.030;2023-04-02T03:38:56;100239.69;;;7.39;73.76
32081;BME280;18593;51.426;7.030;2023-04-02T03:41:30;100240.72;;;7.38;73.59
32081;BME280;18593;51.426;7.030;2023-04-02T03:44:00;100252.91;;;7.32;73.66
32081;BME280;18593;51.426;7.030;2023-04-02T03:46:36;100245.56;;;7.28;73.73
32081;BME280;18593;51.426;7.030;2023-04-02T03:49:06;100251.03;;;7.26;74.03
32081;BME280;18593;51.426;7.030;2023-04-02T03:51:37;100255.94;;;7.22;74.16
32081;BME280;18593;51.426;7.030;2023-04-02T03:54:07;100266.91;;;7.19;73.80
32081;BME280;18593;51.426;7.030;2023-04-02T03:56:38;100276.94;;;7.24;74.06
32081;BME280;18593;51.426;7.030;2023-04-02T03:59:11;100279.81;;;7.29;73.54
32081;BME280;18593;51.426;7.030;2023-04-02T04:01:45;100278.38;;;7.27;73.58
32081;BME280;18593;51.426;7.030;2023-04-02T04:04:16;100290.44;;;7.29;73.51
32081;BME280;18593;51.426;7.030;2023-04-02T04:06:45;100293.69;;;7.31;72.95
32081;BME280;18593;51.426;7.030;2023-04-02T04:09:16;100293.53;;;7.33;72.51
32081;BME280;18593;51.426;7.030;2023-04-02T04:11:48;100312.84;;;7.27;72.50
32081;BME280;18593;51.426;7.030;2023-04-02T04:14:18;100302.81;;;7.22;71.59
32081;BME280;18593;51.426;7.030;2023-04-02T04:16:49;100304.63;;;7.15;71.66
32081;BME280;18593;51.426;7.030;2023-04-02T04:19:24;100327.66;;;7.14;72.21
32081;BME280;18593;51.426;7.030;2023-04-02T04:22:07;100332.09;;;7.07;71.69
32081;BME280;18593;51.426;7.030;2023-04-02T04:24:35;100332.66;;;7.03;71.97
32081;BME280;18593;51.426;7.030;2023-04-02T04:27:05;100332.25;;;6.99;72.32
32081;BME280;18593;51.426;7.030;2023-04-02T04:29:40;100338.81;;;7.03;72.53
32081;BME280;18593;51.426;7.030;2023-04-02T04:32:23;100346.69;;;6.96;71.62
32081;BME280;18593;51.426;7.030;2023-04-02T04:34:55;100365.19;;;6.90;71.52
32081;BME280;18593;51.426;7.030;2023-04-02T04:37:30;100360.16;;;6.74;71.84
32081;BME280;18593;51.426;7.030;2023-04-02T04:40:08;100357.66;;;6.72;72.41
32081;BME280;18593;51.426;7.030;2023-04-02T04:42:38;100365.63;;;6.72;72.38
32081;BME280;18593;51.426;7.030;2023-04-02T04:45:11;100365.06;;;6.77;72.88
32081;BME280;18593;51.426;7.030;2023-04-02T04:47:46;100378.19;;;6.85;72.92
32081;BME280;18593;51.426;7.030;2023-04-02T04:50:17;100395.13;;;6.84;72.89
32081;BME280;18593;51.426;7.030;2023-04-02T04:52:49;100390.13;;;6.74;72.18
32081;BME280;18593;51.426;7.030;2023-04-02T04:55:26;100401.03;;;6.64;72.40
32081;BME280;18593;51.426;7.030;2023-04-02T04:57:55;100401.03;;;6.64;72.44
32081;BME280;18593;51.426;7.030;2023-04-02T05:00:27;100411.63;;;6.64;72.87
32081;BME280;18593;51.426;7.030;2023-04-02T05:03:04;100413.00;;;6.60;72.93
32081;BME280;18593;51.426;7.030;2023-04-02T05:05:37;100426.25;;;6.60;73.02
32081;BME280;18593;51.426;7.030;2023-04-02T05:08:10;100435.84;;;6.61;73.11
32081;BME280;18593;51.426;7.030;2023-04-02T05:10:41;100440.38;;;6.67;72.78
32081;BME280;18593;51.426;7.030;2023-04-02T05:13:15;100443.22;;;6.66;72.54
32081;BME280;18593;51.426;7.030;2023-04-02T05:15:47;100442.03;;;6.68;72.80
32081;BME280;18593;51.426;7.030;2023-04-02T05:18:22;100454.53;;;6.75;72.87
32081;BME280;18593;51.426;7.030;2023-04-02T05:20:54;100454.28;;;6.69;71.42
32081;BME280;18593;51.426;7.030;2023-04-02T05:23:27;100468.25;;;6.63;71.50
32081;BME280;18593;51.426;7.030;2023-04-02T05:26:01;100476.03;;;6.65;72.11
32081;BME280;18593;51.426;7.030;2023-04-02T05:28:33;100477.88;;;6.64;71.89
32081;BME280;18593;51.426;7.030;2023-04-02T05:31:02;100484.16;;;6.63;71.57
32081;BME280;18593;51.426;7.030;2023-04-02T05:33:34;100480.78;;;6.69;71.92
32081;BME280;18593;51.426;7.030;2023-04-02T05:36:07;100492.94;;;6.64;70.81
32081;BME280;18593;51.426;7.030;2023-04-02T05:38:43;100499.06;;;6.64;71.10
32081;BME280;18593;51.426;7.030;2023-04-02T05:41:17;100504.38;;;6.64;70.33
32081;BME280;18593;51.426;7.030;2023-04-02T05:43:48;100509.75;;;6.56;70.59
32081;BME280;18593;51.426;7.030;2023-04-02T05:46:19;100508.66;;;6.51;70.18
32081;BME280;18593;51.426;7.030;2023-04-02T05:48:50;100520.81;;;6.45;70.28
32081;BME280;18593;51.426;7.030;2023-04-02T05:51:24;100528.50;;;6.40;70.45
32081;BME280;18593;51.426;7.030;2023-04-02T05:53:55;100524.56;;;6.36;69.90
32081;BME280;18593;51.426;7.030;2023-04-02T05:56:27;100538.16;;;6.33;70.88
32081;BME280;18593;51.426;7.030;2023-04-02T05:59:01;100540.53;;;6.28;70.20
32081;BME280;18593;51.426;7.030;2023-04-02T06:01:38;100552.13;;;6.27;70.51
32081;BME280;18593;51.426;7.030;2023-04-02T06:04:16;100546.03;;;6.26;70.59
32081;BME280;18593;51.426;7.030;2023-04-02T06:06:49;100549.41;;;6.20;70.63
32081;BME280;18593;51.426;7.030;2023-04-02T06:09:23;100563.75;;;6.26;71.19
32081;BME280;18593;51.426;7.030;2023-04-02T06:11:59;100565.28;;;6.20;70.41
32081;BME280;18593;51.426;7.030;2023-04-02T06:14:28;100581.34;;;6.18;70.70
32081;BME280;18593;51.426;7.030;2023-04-02T06:16:56;100590.22;;;6.26;70.89
32081;BME280;18593;51.426;7.030;2023-04-02T06:19:28;100595.59;;;6.17;69.66
32081;BME280;18593;51.426;7.030;2023-04-02T06:21:58;100601.88;;;6.16;70.08
32081;BME280;18593;51.426;7.030;2023-04-02T06:24:33;100616.97;;;6.16;69.98
32081;BME280;18593;51.426;7.030;2023-04-02T06:27:04;100616.00;;;6.09;69.68
32081;BME280;18593;51.426;7.030;2023-04-02T06:29:33;100606.63;;;6.06;69.65
32081;BME280;18593;51.426;7.030;2023-04-02T06:32:06;100620.47;;;6.08;70.28
32081;BME280;18593;51.426;7.030;2023-04-02T06:34:39;100651.78;;;6.05;69.76
32081;BME280;18593;51.426;7.030;2023-04-02T06:37:14;100631.78;;;6.02;69.91
32081;BME280;18593;51.426;7.030;2023-04-02T06:39:44;100638.38;;;6.06;70.67
32081;BME280;18593;51.426;7.030;2023-04-02T06:42:16;100642.03;;;6.05;70.82
32081;BME280;18593;51.426;7.030;2023-04-02T06:45:13;100641.19;;;6.05;70.11
32081;BME280;18593;51.426;7.030;2023-04-02T06:48:01;100658.06;;;6.04;69.94
32081;BME280;18593;51.426;7.030;2023-04-02T06:50:45;100654.31;;;5.98;69.94
32081;BME280;18593;51.426;7.030;2023-04-02T06:53:19;100665.19;;;6.03;70.78
32081;BME280;18593;51.426;7.030;2023-04-02T06:55:49;100672.13;;;6.04;70.71
32081;BME280;18593;51.426;7.030;2023-04-02T06:58:22;100678.53;;;6.10;70.80
32081;BME280;18593;51.426;7.030;2023-04-02T07:00:50;100681.09;;;6.03;69.83
32081;BME280;18593;51.426;7.030;2023-04-02T07:03:31;100684.56;;;6.04;70.16
32081;BME280;18593;51.426;7.030;2023-04-02T07:06:12;100690.31;;;6.07;70.30
32081;BME280;18593;51.426;7.030;2023-04-02T07:08:40;100691.50;;;6.05;70.27
32081;BME280;18593;51.426;7.030;2023-04-02T07:11:08;100695.81;;;6.06;70.35
32081;BME280;18593;51.426;7.030;2023-04-02T07:13:36;100704.19;;;6.09;70.67
32081;BME280;18593;51.426;7.030;2023-04-02T07:16:04;100707.66;;;6.10;70.38
32081;BME280;18593;51.426;7.030;2023-04-02T07:18:32;100713.16;;;6.08;70.56
32081;BME280;18593;51.426;7.030;2023-04-02T07:21:03;100725.22;;;6.11;70.58
32081;BME280;18593;51.426;7.030;2023-04-02T07:23:32;100731.34;;;6.11;69.72
32081;BME280;18593;51.426;7.030;2023-04-02T07:25:59;100736.69;;;6.03;69.33
32081;BME280;18593;51.426;7.030;2023-04-02T07:28:28;100736.03;;;6.01;69.14
32081;BME280;18593;51.426;7.030;2023-04-02T07:30:55;100733.56;;;6.00;69.57
32081;BME280;18593;51.426;7.030;2023-04-02T07:33:23;100767.44;;;6.04;69.72
32081;BME280;18593;51.426;7.030;2023-04-02T07:35:51;100759.69;;;6.03;69.48
32081;BME280;18593;51.426;7.030;2023-04-02T07:38:20;100758.34;;;6.07;69.02
32081;BME280;18593;51.426;7.030;2023-04-02T07:40:48;100753.38;;;6.04;68.67
32081;BME280;18593;51.426;7.030;2023-04-02T07:43:15;100762.81;;;6.06;68.99
32081;BME280;18593;51.426;7.030;2023-04-02T07:45:42;100771.59;;;6.07;68.79
32081;BME280;18593;51.426;7.030;2023-04-02T07:48:11;100771.75;;;6.05;68.59
32081;BME280;18593;51.426;7.030;2023-04-02T07:50:39;100786.34;;;6.01;68.15
32081;BME280;18593;51.426;7.030;2023-04-02T07:53:06;100787.81;;;6.04;69.17
32081;BME280;18593;51.426;7.030;2023-04-02T07:55:34;100793.97;;;5.96;67.92
32081;BME280;18593;51.426;7.030;2023-04-02T07:58:02;100790.66;;;5.94;68.47
32081;BME280;18593;51.426;7.030;2023-04-02T08:00:29;100794.81;;;5.97;68.48
32081;BME280;18593;51.426;7.030;2023-04-02T08:02:56;100812.50;;;5.96;68.60
32081;BME280;18593;51.426;7.030;2023-04-02T08:05:24;100807.22;;;5.96;68.85
32081;BME280;18593;51.426;7.030;2023-04-02T08:07:52;100810.16;;;6.01;69.07
32081;BME280;18593;51.426;7.030;2023-04-02T08:10:20;100810.63;;;6.05;68.62
32081;BME280;18593;51.426;7.030;2023-04-02T08:12:47;100809.47;;;6.07;68.79
32081;BME280;18593;51.426;7.030;2023-04-02T08:15:16;100824.16;;;6.10;68.52
32081;BME280;18593;51.426;7.030;2023-04-02T08:17:43;100835.13;;;6.07;68.04
32081;BME280;18593;51.426;7.030;2023-04-02T08:20:14;100829.16;;;6.05;68.12
32081;BME280;18593;51.426;7.030;2023-04-02T08:22:43;100837.47;;;6.02;67.55
32081;BME280;18593;51.426;7.030;2023-04-02T08:25:10;100847.25;;;5.93;67.53
32081;BME280;18593;51.426;7.030;2023-04-02T08:27:37;100850.53;;;5.95;67.83
32081;BME280;18593;51.426;7.030;2023-04-02T08:30:06;100858.03;;;5.91;67.46
32081;BME280;18593;51.426;7.030;2023-04-02T08:32:34;100858.84;;;5.92;67.86
32081;BME280;18593;51.426;7.030;2023-04-02T08:35:01;100863.63;;;5.97;67.86
32081;BME280;18593;51.426;7.030;2023-04-02T08:37:28;100878.34;;;5.91;67.56
32081;BME280;18593;51.426;7.030;2023-04-02T08:39:56;100879.84;;;5.93;68.18
32081;BME280;18593;51.426;7.030;2023-04-02T08:42:28;100880.97;;;5.99;67.72
32081;BME280;18593;51.426;7.030;2023-04-02T08:45:03;100881.97;;;5.98;67.08
32081;BME280;18593;51.426;7.030;2023-04-02T08:47:36;100895.72;;;5.93;67.14
32081;BME280;18593;51.426;7.030;2023-04-02T08:50:11;100899.53;;;5.91;66.83
32081;BME280;18593;51.426;7.030;2023-04-02T08:52:40;100906.31;;;5.93;67.75
32081;BME280;18593;51.426;7.030;2023-04-02T08:55:16;100901.34;;;5.99;67.84
32081;BME280;18593;51.426;7.030;2023-04-02T08:57:46;100910.09;;;5.99;67.33
32081;BME280;18593;51.426;7.030;2023-04-02T09:00:25;100920.38;;;6.02;67.38
32081;BME280;18593;51.426;7.030;2023-04-02T09:02:56;100915.56;;;6.06;67.08
32081;BME280;18593;51.426;7.030;2023-04-02T09:05:26;100934.28;;;5.96;66.91
32081;BME280;18593;51.426;7.030;2023-04-02T09:07:54;100922.38;;;5.92;66.44
32081;BME280;18593;51.426;7.030;2023-04-02T09:10:22;100943.38;;;5.93;66.93
32081;BME280;18593;51.426;7.030;2023-04-02T09:12:53;100925.34;;;5.97;66.25
32081;BME280;18593;51.426;7.030;2023-04-02T09:15:24;100942.88;;;5.98;66.43
32081;BME280;18593;51.426;7.030;2023-04-02T09:17:59;100931.28;;;5.99;66.22
32081;BME280;18593;51.426;7.030;2023-04-02T09:20:26;100955.09;;;5.99;66.54
32081;BME280;18593;51.426;7.030;2023-04-02T09:22:54;100951.47;;;6.00;66.43
32081;BME280;18593;51.426;7.030;2023-04-02T09:25:23;100952.78;;;6.04;66.93
32081;BME280;18593;51.426;7.030;2023-04-02T09:27:53;100954.44;;;6.05;66.24
32081;BME280;18593;51.426;7.030;2023-04-02T09:30:26;100966.38;;;6.01;65.81
32081;BME280;18593;51.426;7.030;2023-04-02T09:32:58;100975.97;;;6.02;66.68
32081;BME280;18593;51.426;7.030;2023-04-02T09:35:28;100973.31;;;6.02;65.06
32081;BME280;18593;51.426;7.030;2023-04-02T09:38:16;100983.59;;;5.97;65.53
32081;BME280;18593;51.426;7.030;2023-04-02T09:40:47;100981.44;;;5.92;65.81
32081;BME280;18593;51.426;7.030;2023-04-02T09:43:16;100995.81;;;5.98;66.00
32081;BME280;18593;51.426;7.030;2023-04-02T09:45:44;100983.72;;;6.04;66.18
32081;BME280;18593;51.426;7.030;2023-04-02T09:48:23;100996.81;;;6.05;65.34
32081;BME280;18593;51.426;7.030;2023-04-02T09:51:03;100990.34;;;6.00;64.90
32081;BME280;18593;51.426;7.030;2023-04-02T09:53:33;100999.28;;;6.07;66.07
32081;BME280;18593;51.426;7.030;2023-04-02T09:56:11;101001.06;;;6.14;66.38
32081;BME280;18593;51.426;7.030;2023-04-02T09:58:39;101007.56;;;6.12;65.71
32081;BME280;18593;51.426;7.030;2023-04-02T10:03:50;101022.56;;;6.19;65.01
32081;BME280;18593;51.426;7.030;2023-04-02T10:06:17;101016.31;;;6.21;64.80
32081;BME280;18593;51.426;7.030;2023-04-02T10:08:44;101028.03;;;6.26;65.56
32081;BME280;18593;51.426;7.030;2023-04-02T10:11:13;101044.25;;;6.31;65.51
32081;BME280;18593;51.426;7.030;2023-04-02T10:13:47;101045.25;;;6.30;65.00
32081;BME280;18593;51.426;7.030;2023-04-02T10:16:20;101040.78;;;6.31;64.80
32081;BME280;18593;51.426;7.030;2023-04-02T10:18:52;101051.84;;;6.34;64.70
32081;BME280;18593;51.426;7.030;2023-04-02T10:21:22;101050.50;;;6.38;65.17
32081;BME280;18593;51.426;7.030;2023-04-02T10:23:52;101059.13;;;6.40;64.72
32081;BME280;18593;51.426;7.030;2023-04-02T10:26:40;101062.13;;;6.37;63.95
32081;BME280;18593;51.426;7.030;2023-04-02T10:29:18;101060.97;;;6.32;64.10
32081;BME280;18593;51.426;7.030;2023-04-02T10:31:53;101079.84;;;6.37;64.40
32081;BME280;18593;51.426;7.030;2023-04-02T10:34:29;101085.47;;;6.34;64.08
32081;BME280;18593;51.426;7.030;2023-04-02T10:37:04;101089.78;;;6.35;64.61
32081;BME280;18593;51.426;7.030;2023-04-02T10:39:35;101082.81;;;6.34;63.51
32081;BME280;18593;51.426;7.030;2023-04-02T10:42:06;101086.81;;;6.30;63.86
32081;BME280;18593;51.426;7.030;2023-04-02T10:44:41;101091.94;;;6.31;64.11
32081;BME280;18593;51.426;7.030;2023-04-02T10:47:17;101104.50;;;6.29;63.57
32081;BME280;18593;51.426;7.030;2023-04-02T10:49:53;101098.38;;;6.29;64.37
32081;BME280;18593;51.426;7.030;2023-04-02T10:52:25;101108.16;;;6.36;64.52
32081;BME280;18593;51.426;7.030;2023-04-02T10:54:55;101101.34;;;6.42;64.40
32081;BME280;18593;51.426;7.030;2023-04-02T10:57:31;101113.44;;;6.44;63.58
32081;BME280;18593;51.426;7.030;2023-04-02T11:00:06;101111.94;;;6.42;62.88
32081;BME280;18593;51.426;7.030;2023-04-02T11:02:38;101117.75;;;6.45;63.31
32081;BME280;18593;51.426;7.030;2023-04-02T11:05:14;101116.56;;;6.48;63.25
32081;BME280;18593;51.426;7.030;2023-04-02T11:07:52;101128.66;;;6.51;63.33
32081;BME280;18593;51.426;7.030;2023-04-02T11:10:20;101135.63;;;6.52;63.48
32081;BME280;18593;51.426;7.030;2023-04-02T11:12:51;101144.06;;;6.47;63.20
32081;BME280;18593;51.426;7.030;2023-04-02T11:15:18;101142.75;;;6.43;62.71
32081;BME280;18593;51.426;7.030;2023-04-02T11:17:46;101158.31;;;6.46;63.22
32081;BME280;18593;51.426;7.030;2023-04-02T11:23:34;101159.78;;;6.49;62.88
32081;BME280;18593;51.426;7.030;2023-04-02T11:26:27;101158.97;;;6.56;62.57
32081;BME280;18593;51.426;7.030;2023-04-02T11:29:19;101162.63;;;6.55;62.13
32081;BME280;18593;51.426;7.030;2023-04-02T11:31:47;101175.34;;;6.60;62.42
32081;BME280;18593;51.426;7.030;2023-04-02T11:37:32;101168.72;;;6.64;62.35
32081;BME280;18593;51.426;7.030;2023-04-02T11:40:00;101160.94;;;6.70;62.31
32081;BME280;18593;51.426;7.030;2023-04-02T11:42:30;101174.00;;;6.72;61.55
32081;BME280;18593;51.426;7.030;2023-04-02T11:45:00;101187.75;;;6.76;62.33
32081;BME280;18593;51.426;7.030;2023-04-02T11:47:28;101188.56;;;6.76;61.57
32081;BME280;18593;51.426;7.030;2023-04-02T11:50:00;101186.75;;;6.77;61.55
32081;BME280;18593;51.426;7.030;2023-04-02T11:52:50;101205.97;;;6.79;61.55
32081;BME280;18593;51.426;7.030;2023-04-02T11:55:24;101193.69;;;6.78;60.95
32081;BME280;18593;51.426;7.030;2023-04-02T12:01:14;101195.84;;;6.90;61.51
32081;BME280;18593;51.426;7.030;2023-04-02T12:03:54;101195.34;;;6.87;60.17
32081;BME280;18593;51.426;7.030;2023-04-02T12:06:29;101195.84;;;6.90;61.07
32081;BME280;18593;51.426;7.030;2023-04-02T12:09:11;101207.09;;;6.92;60.67
32081;BME280;18593;51.426;7.030;2023-04-02T12:11:43;101212.72;;;6.97;61.05
32081;BME280;18593;51.426;7.030;2023-04-02T12:14:28;101217.88;;;6.99;60.25
32081;BME280;18593;51.426;7.030;2023-04-02T12:16:56;101234.78;;;6.98;59.78
32081;BME280;18593;51.426;7.030;2023-04-02T12:19:24;101240.09;;;6.90;59.34
32081;BME280;18593;51.426;7.030;2023-04-02T12:21:52;101226.16;;;6.88;59.51
32081;BME280;18593;51.426;7.030;2023-04-02T12:24:22;101234.13;;;6.88;59.52
32081;BME280;18593;51.426;7.030;2023-04-02T12:27:05;101228.66;;;6.81;59.41
32081;BME280;18593;51.426;7.030;2023-04-02T12:29:33;101234.47;;;6.85;59.79
32081;BME280;18593;51.426;7.030;2023-04-02T12:32:01;101236.28;;;6.84;60.09
32081;BME280;18593;51.426;7.030;2023-04-02T12:34:29;101237.94;;;6.85;59.25
32081;BME280;18593;51.426;7.030;2023-04-02T12:36:57;101238.28;;;6.82;59.75
32081;BME280;18593;51.426;7.030;2023-04-02T12:39:29;101262.94;;;6.83;59.22
32081;BME280;18593;51.426;7.030;2023-04-02T12:41:56;101257.00;;;6.81;58.99
32081;BME280;18593;51.426;7.030;2023-04-02T12:44:25;101259.34;;;6.84;59.76
32081;BME280;18593;51.426;7.030;2023-04-02T12:46:53;101263.13;;;6.89;59.91
32081;BME280;18593;51.426;7.030;2023-04-02T12:49:33;101261.13;;;6.91;59.30
32081;BME280;18593;51.426;7.030;2023-04-02T12:52:02;101259.31;;;6.92;59.84
32081;BME280;18593;51.426;7.030;2023-04-02T12:54:33;101245.53;;;6.96;59.42
32081;BME280;18593;51.426;7.030;2023-04-02T12:57:37;101264.59;;;7.00;59.35
32081;BME280;18593;51.426;7.030;2023-04-02T13:00:28;101272.25;;;7.03;59.49
32081;BME280;18593;51.426;7.030;2023-04-02T13:02:59;101275.84;;;7.02;58.73
32081;BME280;18593;51.426;7.030;2023-04-02T13:05:31;101273.72;;;6.97;59.03
32081;BME280;18593;51.426;7.030;2023-04-02T13:08:00;101282.00;;;7.03;59.21
32081;BME280;18593;51.426;7.030;2023-04-02T13:10:28;101287.66;;;7.08;59.60
32081;BME280;18593;51.426;7.030;2023-04-02T13:12:56;101290.94;;;7.10;58.89
32081;BME280;18593;51.426;7.030;2023-04-02T13:15:25;101286.97;;;7.06;58.03
32081;BME280;18593;51.426;7.030;2023-04-02T13:18:05;101288.28;;;7.10;59.01
32081;BME280;18593;51.426;7.030;2023-04-02T13:20:33;101283.31;;;7.07;58.10
32081;BME280;18593;51.426;7.030;2023-04-02T13:23:10;101290.78;;;7.11;58.32
32081;BME280;18593;51.426;7.030;2023-04-02T13:25:50;101285.13;;;7.14;58.39
32081;BME280;18593;51.426;7.030;2023-04-02T13:28:17;101292.41;;;7.12;58.37
32081;BME280;18593;51.426;7.030;2023-04-02T13:30:45;101292.09;;;7.15;58.17
32081;BME280;18593;51.426;7.030;2023-04-02T13:33:12;101286.28;;;7.20;58.73
32081;BME280;18593;51.426;7.030;2023-04-02T13:35:40;101294.25;;;7.20;57.68
32081;BME280;18593;51.426;7.030;2023-04-02T13:38:07;101295.56;;;7.24;58.46
32081;BME280;18593;51.426;7.030;2023-04-02T13:40:34;101290.41;;;7.31;57.97
32081;BME280;18593;51.426;7.030;2023-04-02T13:43:04;101297.72;;;7.29;57.19